createdAt,value
2023-07-09T00:02:16.838Z,19.10
2023-07-09T00:07:34.228Z,19.00
2023-07-09T00:12:36.741Z,18.90
2023-07-09T00:17:40.953Z,18.80
2023-07-09T00:22:53.040Z,18.80
2023-07-09T00:27:55.532Z,18.70
2023-07-09T00:32:59.564Z,18.60
2023-07-09T00:38:02.088Z,18.60
2023-07-09T00:43:15.909Z,18.50
2023-07-09T00:48:18.921Z,18.40
2023-07-09T00:53:30.787Z,18.30
2023-07-09T00:58:36.320Z,18.20
2023-07-09T01:03:50.496Z,18.20
2023-07-09T01:08:54.613Z,18.20
2023-07-09T01:14:02.217Z,18.00
2023-07-09T01:19:06.892Z,18.00
2023-07-09T01:24:47.830Z,17.80
2023-07-09T01:29:51.028Z,17.90
2023-07-09T01:34:57.031Z,17.80
2023-07-09T01:39:59.483Z,17.70
2023-07-09T01:45:05.266Z,17.70
2023-07-09T01:50:09.102Z,17.60
2023-07-09T01:55:14.388Z,17.60
2023-07-09T02:00:17.729Z,17.60
2023-07-09T02:05:21.032Z,17.50
2023-07-09T02:10:23.703Z,17.60
2023-07-09T02:15:26.484Z,17.50
2023-07-09T02:20:28.983Z,17.40
2023-07-09T02:25:31.478Z,17.40
2023-07-09T02:30:33.962Z,17.30
2023-07-09T02:35:37.295Z,17.40
2023-07-09T02:40:40.325Z,17.30
2023-07-09T02:45:42.804Z,17.20
2023-07-09T02:50:45.241Z,17.30
2023-07-09T02:55:47.792Z,17.50
2023-07-09T03:00:54.038Z,17.50
2023-07-09T03:05:56.642Z,17.40
2023-07-09T03:10:59.595Z,17.40
2023-07-09T03:16:02.392Z,17.30
2023-07-09T03:21:05.433Z,17.30
2023-07-09T03:26:07.930Z,17.40
2023-07-09T03:31:10.749Z,17.40
2023-07-09T03:36:13.740Z,17.70
2023-07-09T03:41:16.690Z,17.60
2023-07-09T03:46:19.231Z,17.60
2023-07-09T03:51:21.652Z,17.70
2023-07-09T03:56:24.486Z,17.50
2023-07-09T04:01:27.140Z,17.80
2023-07-09T04:06:30.069Z,18.80
2023-07-09T04:11:32.500Z,19.40
2023-07-09T04:16:34.991Z,20.00
2023-07-09T04:21:37.502Z,20.60
2023-07-09T04:26:40.195Z,21.10
2023-07-09T04:31:42.798Z,21.60
2023-07-09T04:36:45.591Z,21.60
2023-07-09T04:41:48.592Z,21.50
2023-07-09T04:46:51.125Z,21.60
2023-07-09T04:51:53.517Z,21.70
2023-07-09T04:56:57.198Z,22.00
2023-07-09T05:02:00.278Z,22.20
2023-07-09T05:07:02.800Z,22.40
2023-07-09T05:12:05.717Z,22.50
2023-07-09T05:17:09.032Z,22.50
2023-07-09T05:22:11.551Z,22.20
2023-07-09T05:27:13.953Z,22.60
2023-07-09T05:32:16.355Z,22.70
2023-07-09T05:37:18.990Z,23.10
2023-07-09T05:42:21.527Z,23.60
2023-07-09T05:47:24.257Z,23.80
2023-07-09T05:52:26.883Z,23.80
2023-07-09T05:57:29.337Z,24.00
2023-07-09T06:02:31.926Z,23.90
2023-07-09T06:07:34.408Z,23.70
2023-07-09T06:12:37.389Z,23.80
2023-07-09T06:17:40.004Z,24.00
2023-07-09T06:22:42.579Z,24.10
2023-07-09T06:27:44.990Z,24.20
2023-07-09T06:32:47.629Z,24.20
2023-07-09T06:37:50.372Z,24.40
2023-07-09T06:42:52.892Z,24.60
2023-07-09T06:48:02.644Z,25.00
2023-07-09T06:53:05.125Z,24.80
2023-07-09T06:58:07.836Z,25.20
2023-07-09T07:03:10.865Z,25.60
2023-07-09T07:08:17.132Z,26.20
2023-07-09T07:13:19.552Z,26.20
2023-07-09T07:18:22.112Z,26.40
2023-07-09T07:23:25.258Z,26.50
2023-07-09T07:28:27.772Z,26.60
2023-07-09T07:33:30.409Z,26.70
2023-07-09T07:38:33.247Z,27.00
2023-07-09T07:43:35.711Z,27.00
2023-07-09T07:48:38.170Z,27.20
2023-07-09T07:53:40.692Z,27.30
2023-07-09T07:58:43.114Z,27.10
2023-07-09T08:03:45.588Z,27.60
2023-07-09T08:08:48.334Z,27.50
2023-07-09T08:13:51.275Z,27.60
2023-07-09T08:18:53.851Z,27.50
2023-07-09T08:23:56.403Z,27.20
2023-07-09T08:28:58.845Z,27.70
2023-07-09T08:34:01.258Z,27.80
2023-07-09T08:39:07.765Z,27.20
2023-07-09T08:44:32.605Z,27.60
2023-07-09T08:50:06.595Z,27.80
2023-07-09T08:55:26.268Z,28.40
2023-07-09T09:00:43.267Z,28.60
2023-07-09T09:05:50.868Z,28.50
2023-07-09T09:11:16.045Z,29.10
2023-07-09T09:16:32.413Z,28.40
2023-07-09T09:21:37.951Z,28.80
2023-07-09T09:26:47.969Z,29.00
2023-07-09T09:31:56.377Z,28.90
2023-07-09T09:37:00.166Z,29.10
2023-07-09T09:42:02.865Z,29.30
2023-07-09T09:47:05.775Z,29.00
2023-07-09T09:52:19.551Z,29.50
2023-07-09T09:57:24.626Z,29.60
2023-07-09T10:02:27.169Z,29.20
2023-07-09T10:07:37.670Z,30.00
2023-07-09T10:12:56.259Z,30.00
2023-07-09T10:18:38.583Z,30.00
2023-07-09T10:24:09.898Z,29.70
2023-07-09T10:29:21.326Z,30.00
2023-07-09T10:34:30.152Z,29.80
2023-07-09T10:39:40.077Z,29.80
2023-07-09T10:44:47.933Z,29.90
2023-07-09T10:49:51.589Z,30.10
2023-07-09T10:55:01.949Z,30.10
2023-07-09T11:00:05.171Z,30.30
2023-07-09T11:05:11.424Z,30.30
2023-07-09T11:10:28.524Z,30.20
2023-07-09T11:15:36.151Z,30.40
2023-07-09T11:20:45.343Z,30.40
2023-07-09T11:26:09.121Z,30.90
2023-07-09T11:31:39.928Z,30.60
2023-07-09T11:36:56.419Z,30.10
2023-07-09T11:41:59.431Z,29.90
2023-07-09T11:47:20.397Z,30.70
2023-07-09T11:52:51.630Z,31.00
2023-07-09T11:58:05.139Z,31.10
2023-07-09T12:03:18.201Z,31.40
2023-07-09T12:08:30.085Z,31.40
2023-07-09T12:13:40.111Z,31.10
2023-07-09T12:18:44.664Z,30.90
2023-07-09T12:23:47.695Z,31.20
2023-07-09T12:28:54.957Z,31.20
2023-07-09T12:33:59.409Z,31.10
2023-07-09T12:39:04.066Z,31.10
2023-07-09T12:44:09.527Z,31.20
2023-07-09T12:49:26.613Z,31.10
2023-07-09T12:54:30.607Z,30.70
2023-07-09T12:59:41.133Z,30.70
2023-07-09T13:04:44.030Z,30.80
2023-07-09T13:09:53.926Z,31.20
2023-07-09T13:15:00.184Z,31.50
2023-07-09T13:20:03.300Z,31.40
2023-07-09T13:25:08.373Z,31.40
2023-07-09T13:30:11.155Z,31.60
2023-07-09T13:35:19.698Z,31.80
2023-07-09T13:40:22.163Z,31.60
2023-07-09T13:45:26.312Z,31.70
2023-07-09T13:50:29.048Z,31.90
2023-07-09T13:55:31.502Z,32.00
2023-07-09T14:00:34.073Z,31.60
2023-07-09T14:05:36.578Z,31.60
2023-07-09T14:10:39.614Z,31.50
2023-07-09T14:15:42.237Z,31.50
2023-07-09T14:20:45.395Z,31.20
2023-07-09T14:25:48.687Z,31.10
2023-07-09T14:30:52.152Z,30.70
2023-07-09T14:35:54.756Z,30.90
2023-07-09T14:41:00.962Z,31.20
2023-07-09T14:46:03.689Z,31.10
2023-07-09T14:51:15.971Z,30.70
2023-07-09T14:56:18.529Z,31.40
2023-07-09T15:01:22.456Z,31.50
2023-07-09T15:06:24.941Z,31.60
2023-07-09T15:11:27.399Z,31.20
2023-07-09T15:16:29.959Z,31.20
2023-07-09T15:21:32.499Z,31.20
2023-07-09T15:26:34.961Z,31.00
2023-07-09T15:31:37.443Z,31.00
2023-07-09T15:36:40.177Z,30.90
2023-07-09T15:41:42.980Z,31.00
2023-07-09T15:46:55.441Z,30.80
2023-07-09T15:51:58.882Z,30.20
2023-07-09T15:57:01.938Z,30.20
2023-07-09T16:02:15.367Z,30.30
2023-07-09T16:07:17.936Z,30.40
2023-07-09T16:12:20.484Z,30.30
2023-07-09T16:17:23.010Z,30.20
2023-07-09T16:22:25.524Z,30.20
2023-07-09T16:27:28.128Z,30.20
2023-07-09T16:32:30.582Z,30.10
2023-07-09T16:37:33.020Z,29.80
2023-07-09T16:42:36.024Z,29.70
2023-07-09T16:47:38.558Z,29.50
2023-07-09T16:52:41.596Z,29.40
2023-07-09T16:57:44.253Z,29.20
2023-07-09T17:02:46.916Z,29.10
2023-07-09T17:07:49.514Z,28.90
2023-07-09T17:12:58.699Z,28.80
2023-07-09T17:18:01.982Z,28.70
2023-07-09T17:23:04.510Z,28.60
2023-07-09T17:28:22.403Z,28.50
2023-07-09T17:33:25.215Z,28.20
2023-07-09T17:38:35.127Z,28.20
2023-07-09T17:43:39.168Z,28.00
2023-07-09T17:48:43.614Z,28.00
2023-07-09T17:53:46.268Z,27.70
2023-07-09T17:58:49.153Z,27.60
2023-07-09T18:03:51.696Z,27.40
2023-07-09T18:08:54.161Z,27.20
2023-07-09T18:13:56.935Z,27.00
2023-07-09T18:19:04.592Z,26.80
2023-07-09T18:24:07.085Z,26.60
2023-07-09T18:29:23.942Z,26.50
2023-07-09T18:34:26.365Z,26.20
2023-07-09T18:39:28.771Z,26.10
2023-07-09T18:44:31.323Z,25.80
2023-07-09T18:49:33.741Z,25.60
2023-07-09T18:54:36.283Z,25.30
2023-07-09T18:59:39.466Z,25.20
2023-07-09T19:04:41.968Z,24.90
2023-07-09T19:09:45.287Z,24.70
2023-07-09T19:14:47.703Z,24.50
2023-07-09T19:19:50.597Z,24.20
2023-07-09T19:24:53.065Z,24.00
2023-07-09T19:29:55.511Z,23.80
2023-07-09T19:34:57.961Z,23.60
2023-07-09T19:40:00.396Z,23.30
2023-07-09T19:45:02.900Z,23.30
2023-07-09T19:50:17.129Z,23.00
2023-07-09T19:55:28.698Z,22.90
2023-07-09T20:00:31.510Z,22.70
2023-07-09T20:05:34.006Z,22.70
2023-07-09T20:10:36.503Z,22.60
2023-07-09T20:15:39.524Z,22.50
2023-07-09T20:21:04.343Z,22.30
2023-07-09T20:26:07.192Z,22.20
2023-07-09T20:31:20.576Z,22.20
2023-07-09T20:36:23.257Z,21.90
2023-07-09T20:41:29.201Z,21.90
2023-07-09T20:46:31.730Z,21.80
2023-07-09T20:51:34.391Z,21.60
2023-07-09T20:56:37.335Z,21.40
2023-07-09T21:01:39.924Z,21.20
2023-07-09T21:06:43.001Z,21.00
2023-07-09T21:11:47.000Z,20.90
2023-07-09T21:16:50.472Z,20.70
2023-07-09T21:21:52.980Z,20.80
2023-07-09T21:26:57.583Z,20.80
2023-07-09T21:32:06.424Z,20.70
2023-07-09T21:37:18.176Z,20.60
2023-07-09T21:42:20.622Z,20.70
2023-07-09T21:47:24.500Z,20.60
2023-07-09T21:52:27.042Z,20.40
2023-07-09T21:57:29.745Z,20.20
2023-07-09T22:02:32.492Z,20.10
2023-07-09T22:07:35.034Z,20.00
2023-07-09T22:12:37.651Z,20.00
2023-07-09T22:17:40.137Z,19.80
2023-07-09T22:22:42.692Z,19.70
2023-07-09T22:27:45.838Z,19.70
2023-07-09T22:32:54.924Z,19.70
2023-07-09T22:37:58.540Z,19.70
2023-07-09T22:43:01.069Z,19.60
2023-07-09T22:48:05.966Z,19.30
2023-07-09T22:53:18.040Z,19.30
2023-07-09T22:58:22.032Z,19.30
2023-07-09T23:03:34.712Z,19.30
2023-07-09T23:08:37.238Z,19.20
2023-07-09T23:13:39.720Z,19.20
2023-07-09T23:18:48.556Z,19.10
2023-07-09T23:23:58.663Z,18.80
2023-07-09T23:29:01.577Z,18.80
2023-07-09T23:34:10.791Z,18.80
2023-07-09T23:39:13.976Z,18.70
2023-07-09T23:44:22.570Z,18.70
2023-07-09T23:49:27.744Z,18.80
2023-07-09T23:54:30.232Z,18.60
2023-07-09T23:59:35.911Z,18.60
